createdAt,value
2022-11-20T00:04:02.370Z,99.10
2022-11-20T00:14:12.225Z,85.50
2022-11-20T00:34:26.333Z,95.70
2022-11-20T00:44:34.129Z,85.70
2022-11-20T00:54:41.281Z,87.20
2022-11-20T01:04:48.465Z,82.60
2022-11-20T01:14:55.778Z,83.80
2022-11-20T01:25:03.495Z,78.60
2022-11-20T01:35:08.275Z,80.30
2022-11-20T01:45:44.425Z,90.00
2022-11-20T01:55:55.448Z,87.30
2022-11-20T02:06:05.982Z,93.20
2022-11-20T02:16:11.733Z,91.20
2022-11-20T02:26:22.254Z,103.40
2022-11-20T02:36:32.520Z,99.50
2022-11-20T02:46:41.035Z,96.10
2022-11-20T02:56:47.986Z,87.90
2022-11-20T03:06:56.406Z,85.90
2022-11-20T03:17:04.380Z,72.60
2022-11-20T03:27:11.346Z,81.50
2022-11-20T03:37:18.353Z,82.10
2022-11-20T03:47:25.489Z,82.80
2022-11-20T03:57:32.764Z,82.40
2022-11-20T04:07:39.828Z,79.70
2022-11-20T04:17:46.316Z,78.70
2022-11-20T04:27:53.429Z,71.10
2022-11-20T04:38:00.698Z,74.10
2022-11-20T04:48:05.477Z,68.60
2022-11-20T04:58:13.215Z,72.40
2022-11-20T05:08:19.476Z,73.90
2022-11-20T05:18:27.196Z,71.40
2022-11-20T05:28:34.635Z,69.60
2022-11-20T05:38:42.224Z,69.60
2022-11-20T05:48:49.943Z,70.00
2022-11-20T05:58:58.271Z,52.50
2022-11-20T06:09:05.968Z,68.20
2022-11-20T06:19:13.313Z,70.10
2022-11-20T06:29:19.612Z,71.60
2022-11-20T06:39:26.788Z,70.20
2022-11-20T06:49:33.424Z,65.90
2022-11-20T07:09:46.266Z,77.10
2022-11-20T07:19:53.539Z,79.50
2022-11-20T07:30:00.504Z,80.60
2022-11-20T07:40:08.616Z,86.70
2022-11-20T07:50:16.610Z,86.50
2022-11-20T08:00:21.451Z,85.50
2022-11-20T08:10:29.283Z,90.70
2022-11-20T08:20:37.550Z,81.30
2022-11-20T08:30:45.419Z,88.10
2022-11-20T08:41:06.487Z,97.20
2022-11-20T08:51:15.386Z,99.50
2022-11-20T09:01:23.227Z,89.80
2022-11-20T09:11:30.545Z,85.50
2022-11-20T09:21:39.163Z,82.00
2022-11-20T09:31:46.482Z,54.90
2022-11-20T09:42:20.598Z,61.60
2022-11-20T09:52:43.633Z,61.10
2022-11-20T10:02:52.334Z,62.20
2022-11-20T10:13:02.469Z,56.20
2022-11-20T10:23:14.305Z,47.90
2022-11-20T10:33:23.393Z,41.80
2022-11-20T10:43:35.223Z,47.30
2022-11-20T10:53:43.440Z,37.90
2022-11-20T11:03:51.936Z,37.60
2022-11-20T11:14:06.384Z,37.10
2022-11-20T11:24:41.176Z,34.80
2022-11-20T11:35:00.581Z,37.30
2022-11-20T11:45:07.927Z,37.40
2022-11-20T11:55:21.712Z,37.40
2022-11-20T12:05:29.832Z,42.90
2022-11-20T12:15:37.944Z,41.20
2022-11-20T12:25:46.158Z,34.20
2022-11-20T12:35:58.268Z,48.30
2022-11-20T12:46:11.777Z,49.70
2022-11-20T12:56:19.603Z,48.70
2022-11-20T13:06:28.500Z,40.10
2022-11-20T13:16:38.327Z,38.80
2022-11-20T13:26:44.498Z,35.00
2022-11-20T13:36:57.184Z,29.30
2022-11-20T13:47:04.301Z,33.30
2022-11-20T13:57:12.772Z,40.40
2022-11-20T14:07:20.131Z,46.10
2022-11-20T14:17:32.929Z,51.00
2022-11-20T14:27:41.342Z,56.00
2022-11-20T14:37:49.234Z,57.30
2022-11-20T14:47:56.451Z,50.70
2022-11-20T14:58:01.324Z,44.50
2022-11-20T15:08:13.452Z,45.60
2022-11-20T15:18:21.687Z,67.00
2022-11-20T15:28:32.633Z,73.60
2022-11-20T15:38:40.453Z,81.10
2022-11-20T15:48:53.402Z,80.20
2022-11-20T15:59:00.557Z,74.40
2022-11-20T16:09:08.031Z,86.20
2022-11-20T16:19:15.525Z,88.70
2022-11-20T16:29:21.499Z,92.50
2022-11-20T16:39:28.361Z,95.50
2022-11-20T16:49:36.137Z,85.50
2022-11-20T16:59:42.911Z,82.60
2022-11-20T17:09:49.295Z,76.80
2022-11-20T17:19:56.667Z,95.20
2022-11-20T17:30:03.968Z,87.90
2022-11-20T17:40:10.201Z,85.80
2022-11-20T17:50:17.535Z,72.40
2022-11-20T18:00:25.327Z,64.80
2022-11-20T18:10:30.587Z,55.60
2022-11-20T18:20:40.036Z,45.40
2022-11-20T18:30:47.695Z,53.50
2022-11-20T18:40:54.919Z,67.40
2022-11-20T18:51:06.494Z,63.70
2022-11-20T19:01:13.995Z,57.30
2022-11-20T19:11:20.933Z,59.10
2022-11-20T19:21:28.615Z,39.40
2022-11-20T19:31:35.959Z,36.90
2022-11-20T19:41:44.072Z,29.30
2022-11-20T19:51:52.304Z,29.90
2022-11-20T20:01:59.774Z,43.00
2022-11-20T20:12:07.769Z,44.70
2022-11-20T20:22:15.003Z,49.70
2022-11-20T20:32:22.371Z,43.20
2022-11-20T20:42:30.745Z,46.30
2022-11-20T20:52:39.438Z,51.10
2022-11-20T21:02:46.476Z,37.30
2022-11-20T21:12:52.932Z,27.80
2022-11-20T21:23:00.045Z,24.90
2022-11-20T21:33:07.103Z,24.70
2022-11-20T21:43:14.299Z,27.00
2022-11-20T21:53:21.432Z,30.10
2022-11-20T22:03:28.721Z,30.60
2022-11-20T22:13:53.931Z,40.00
2022-11-20T22:24:01.651Z,39.50
2022-11-20T22:34:11.287Z,33.90
2022-11-20T22:44:16.582Z,28.90
2022-11-20T22:54:24.260Z,20.70
2022-11-20T23:04:31.811Z,24.60
2022-11-20T23:14:38.954Z,29.10
2022-11-20T23:24:46.471Z,26.80
2022-11-20T23:34:53.662Z,29.20
2022-11-20T23:44:59.805Z,32.40
2022-11-20T23:55:08.042Z,35.60
